sensor_id;sensor_type;location;lat;lon;timestamp;temperature;humidity
67598;DHT22;62026;39.230;9.122;2023-01-10T00:00:40;13.40;57.90
67598;DHT22;62026;39.230;9.122;2023-01-10T00:03:09;13.40;57.90
67598;DHT22;62026;39.230;9.122;2023-01-10T00:05:37;13.50;58.00
67598;DHT22;62026;39.230;9.122;2023-01-10T00:08:05;13.50;57.90
67598;DHT22;62026;39.230;9.122;2023-01-10T00:10:33;13.50;57.80
67598;DHT22;62026;39.230;9.122;2023-01-10T00:12:59;13.50;57.30
67598;DHT22;62026;39.230;9.122;2023-01-10T00:15:44;13.50;57.50
67598;DHT22;62026;39.230;9.122;2023-01-10T00:18:10;13.60;57.70
67598;DHT22;62026;39.230;9.122;2023-01-10T00:20:37;13.50;57.50
67598;DHT22;62026;39.230;9.122;2023-01-10T00:23:03;13.60;57.70
67598;DHT22;62026;39.230;9.122;2023-01-10T00:25:29;13.60;57.50
67598;DHT22;62026;39.230;9.122;2023-01-10T00:27:57;13.60;57.70
67598;DHT22;62026;39.230;9.122;2023-01-10T00:30:38;13.60;57.10
67598;DHT22;62026;39.230;9.122;2023-01-10T00:33:07;13.60;57.20
67598;DHT22;62026;39.230;9.122;2023-01-10T00:35:33;13.60;57.30
67598;DHT22;62026;39.230;9.122;2023-01-10T00:37:59;13.60;56.70
67598;DHT22;62026;39.230;9.122;2023-01-10T00:40:32;13.60;56.60
67598;DHT22;62026;39.230;9.122;2023-01-10T00:42:59;13.60;56.20
67598;DHT22;62026;39.230;9.122;2023-01-10T00:45:45;13.60;55.80
67598;DHT22;62026;39.230;9.122;2023-01-10T00:48:12;13.60;55.50
67598;DHT22;62026;39.230;9.122;2023-01-10T00:50:39;13.60;55.50
67598;DHT22;62026;39.230;9.122;2023-01-10T00:53:05;13.60;55.70
67598;DHT22;62026;39.230;9.122;2023-01-10T00:55:32;13.60;55.80
67598;DHT22;62026;39.230;9.122;2023-01-10T00:58:00;13.60;55.40
67598;DHT22;62026;39.230;9.122;2023-01-10T01:00:26;13.60;55.00
67598;DHT22;62026;39.230;9.122;2023-01-10T01:02:52;13.60;54.70
67598;DHT22;62026;39.230;9.122;2023-01-10T01:05:19;13.60;54.50
67598;DHT22;62026;39.230;9.122;2023-01-10T01:07:50;13.60;54.80
67598;DHT22;62026;39.230;9.122;2023-01-10T01:10:18;13.60;55.10
67598;DHT22;62026;39.230;9.122;2023-01-10T01:12:59;13.60;55.20
67598;DHT22;62026;39.230;9.122;2023-01-10T01:15:32;13.60;55.30
67598;DHT22;62026;39.230;9.122;2023-01-10T01:17:59;13.60;55.50
67598;DHT22;62026;39.230;9.122;2023-01-10T01:20:26;13.60;55.60
67598;DHT22;62026;39.230;9.122;2023-01-10T01:22:52;13.60;55.50
67598;DHT22;62026;39.230;9.122;2023-01-10T01:25:18;13.60;55.30
67598;DHT22;62026;39.230;9.122;2023-01-10T01:27:44;13.60;55.10
67598;DHT22;62026;39.230;9.122;2023-01-10T01:30:11;13.60;55.20
67598;DHT22;62026;39.230;9.122;2023-01-10T01:32:37;13.60;55.70
67598;DHT22;62026;39.230;9.122;2023-01-10T01:35:05;13.60;55.30
67598;DHT22;62026;39.230;9.122;2023-01-10T01:37:31;13.60;55.20
67598;DHT22;62026;39.230;9.122;2023-01-10T01:39:58;13.60;55.70
67598;DHT22;62026;39.230;9.122;2023-01-10T01:42:30;13.60;55.40
67598;DHT22;62026;39.230;9.122;2023-01-10T01:50:53;13.60;55.60
67598;DHT22;62026;39.230;9.122;2023-01-10T01:56:12;13.60;56.30
67598;DHT22;62026;39.230;9.122;2023-01-10T02:01:25;13.60;56.20
67598;DHT22;62026;39.230;9.122;2023-01-10T02:04:02;13.60;55.80
67598;DHT22;62026;39.230;9.122;2023-01-10T02:06:35;13.60;56.10
67598;DHT22;62026;39.230;9.122;2023-01-10T02:09:24;13.60;55.80
67598;DHT22;62026;39.230;9.122;2023-01-10T02:11:55;13.60;56.20
67598;DHT22;62026;39.230;9.122;2023-01-10T02:14:23;13.60;55.80
67598;DHT22;62026;39.230;9.122;2023-01-10T02:16:51;13.50;56.00
67598;DHT22;62026;39.230;9.122;2023-01-10T02:37:07;13.60;57.10
67598;DHT22;62026;39.230;9.122;2023-01-10T02:42:14;13.60;57.00
67598;DHT22;62026;39.230;9.122;2023-01-10T02:44:59;13.60;57.00
67598;DHT22;62026;39.230;9.122;2023-01-10T02:47:40;13.60;56.80
67598;DHT22;62026;39.230;9.122;2023-01-10T02:53:21;13.60;57.10
67598;DHT22;62026;39.230;9.122;2023-01-10T02:56:11;13.60;57.10
67598;DHT22;62026;39.230;9.122;2023-01-10T03:05:01;13.60;57.20
67598;DHT22;62026;39.230;9.122;2023-01-10T03:08:00;13.50;57.50
67598;DHT22;62026;39.230;9.122;2023-01-10T03:11:08;13.50;57.40
67598;DHT22;62026;39.230;9.122;2023-01-10T03:13:47;13.50;58.10
67598;DHT22;62026;39.230;9.122;2023-01-10T03:16:23;13.50;57.50
67598;DHT22;62026;39.230;9.122;2023-01-10T03:19:30;13.50;57.70
67598;DHT22;62026;39.230;9.122;2023-01-10T03:21:51;13.50;58.20
67598;DHT22;62026;39.230;9.122;2023-01-10T03:24:31;13.50;58.50
67598;DHT22;62026;39.230;9.122;2023-01-10T03:27:08;13.50;57.80
67598;DHT22;62026;39.230;9.122;2023-01-10T03:30:20;13.50;58.40
67598;DHT22;62026;39.230;9.122;2023-01-10T03:32:57;13.50;58.20
67598;DHT22;62026;39.230;9.122;2023-01-10T03:38:28;13.50;57.50
67598;DHT22;62026;39.230;9.122;2023-01-10T03:44:18;13.50;57.70
67598;DHT22;62026;39.230;9.122;2023-01-10T03:50:23;13.50;57.90
67598;DHT22;62026;39.230;9.122;2023-01-10T03:52:52;13.50;58.00
67598;DHT22;62026;39.230;9.122;2023-01-10T03:55:20;13.50;57.50
67598;DHT22;62026;39.230;9.122;2023-01-10T03:57:50;13.50;57.30
67598;DHT22;62026;39.230;9.122;2023-01-10T04:00:16;13.50;57.00
67598;DHT22;62026;39.230;9.122;2023-01-10T04:02:43;13.50;57.10
67598;DHT22;62026;39.230;9.122;2023-01-10T04:05:10;13.50;57.80
67598;DHT22;62026;39.230;9.122;2023-01-10T04:07:36;13.50;57.60
67598;DHT22;62026;39.230;9.122;2023-01-10T04:10:04;13.50;56.60
67598;DHT22;62026;39.230;9.122;2023-01-10T04:12:30;13.50;57.20
67598;DHT22;62026;39.230;9.122;2023-01-10T04:14:56;13.50;56.60
67598;DHT22;62026;39.230;9.122;2023-01-10T04:17:22;13.50;56.70
67598;DHT22;62026;39.230;9.122;2023-01-10T04:19:48;13.50;56.20
67598;DHT22;62026;39.230;9.122;2023-01-10T04:22:14;13.50;56.00
67598;DHT22;62026;39.230;9.122;2023-01-10T04:24:40;13.50;55.90
67598;DHT22;62026;39.230;9.122;2023-01-10T04:27:08;13.50;55.70
67598;DHT22;62026;39.230;9.122;2023-01-10T04:29:34;13.50;55.90
67598;DHT22;62026;39.230;9.122;2023-01-10T04:32:00;13.50;55.70
67598;DHT22;62026;39.230;9.122;2023-01-10T04:34:27;13.50;55.80
67598;DHT22;62026;39.230;9.122;2023-01-10T04:36:52;13.50;55.70
67598;DHT22;62026;39.230;9.122;2023-01-10T04:39:18;13.50;55.70
67598;DHT22;62026;39.230;9.122;2023-01-10T04:41:44;13.50;55.50
67598;DHT22;62026;39.230;9.122;2023-01-10T04:44:10;13.50;55.50
67598;DHT22;62026;39.230;9.122;2023-01-10T04:46:37;13.50;55.30
67598;DHT22;62026;39.230;9.122;2023-01-10T04:49:03;13.50;55.60
67598;DHT22;62026;39.230;9.122;2023-01-10T04:51:29;13.50;55.30
67598;DHT22;62026;39.230;9.122;2023-01-10T04:53:55;13.50;55.20
67598;DHT22;62026;39.230;9.122;2023-01-10T04:56:22;13.50;55.30
67598;DHT22;62026;39.230;9.122;2023-01-10T04:58:48;13.50;55.80
67598;DHT22;62026;39.230;9.122;2023-01-10T05:01:24;13.50;55.50
67598;DHT22;62026;39.230;9.122;2023-01-10T05:03:53;13.50;55.40
67598;DHT22;62026;39.230;9.122;2023-01-10T05:06:21;13.50;55.50
67598;DHT22;62026;39.230;9.122;2023-01-10T05:08:48;13.50;55.80
67598;DHT22;62026;39.230;9.122;2023-01-10T05:11:14;13.50;55.40
67598;DHT22;62026;39.230;9.122;2023-01-10T05:13:40;13.50;55.70
67598;DHT22;62026;39.230;9.122;2023-01-10T05:16:07;13.50;55.90
67598;DHT22;62026;39.230;9.122;2023-01-10T05:18:33;13.50;55.80
67598;DHT22;62026;39.230;9.122;2023-01-10T05:21:05;13.40;56.20
67598;DHT22;62026;39.230;9.122;2023-01-10T05:23:33;13.40;56.00
67598;DHT22;62026;39.230;9.122;2023-01-10T05:26:09;13.40;55.90
67598;DHT22;62026;39.230;9.122;2023-01-10T05:28:37;13.40;55.70
67598;DHT22;62026;39.230;9.122;2023-01-10T05:31:06;13.40;55.70
67598;DHT22;62026;39.230;9.122;2023-01-10T05:33:37;13.40;55.30
67598;DHT22;62026;39.230;9.122;2023-01-10T05:36:05;13.40;56.00
67598;DHT22;62026;39.230;9.122;2023-01-10T05:38:32;13.50;55.40
67598;DHT22;62026;39.230;9.122;2023-01-10T05:40:59;13.40;55.30
67598;DHT22;62026;39.230;9.122;2023-01-10T05:43:26;13.50;55.60
67598;DHT22;62026;39.230;9.122;2023-01-10T05:45:52;13.50;55.30
67598;DHT22;62026;39.230;9.122;2023-01-10T05:48:19;13.50;55.10
67598;DHT22;62026;39.230;9.122;2023-01-10T05:50:45;13.50;55.40
67598;DHT22;62026;39.230;9.122;2023-01-10T05:53:11;13.40;55.50
67598;DHT22;62026;39.230;9.122;2023-01-10T05:55:37;13.40;55.10
67598;DHT22;62026;39.230;9.122;2023-01-10T05:58:03;13.40;55.20
67598;DHT22;62026;39.230;9.122;2023-01-10T06:00:29;13.40;54.90
67598;DHT22;62026;39.230;9.122;2023-01-10T06:02:55;13.40;55.10
67598;DHT22;62026;39.230;9.122;2023-01-10T06:05:23;13.40;55.10
67598;DHT22;62026;39.230;9.122;2023-01-10T06:07:49;13.40;55.30
67598;DHT22;62026;39.230;9.122;2023-01-10T06:10:16;13.40;55.20
67598;DHT22;62026;39.230;9.122;2023-01-10T06:12:42;13.40;55.10
67598;DHT22;62026;39.230;9.122;2023-01-10T06:15:09;13.40;55.00
67598;DHT22;62026;39.230;9.122;2023-01-10T06:17:35;13.40;55.10
67598;DHT22;62026;39.230;9.122;2023-01-10T06:20:01;13.40;54.90
67598;DHT22;62026;39.230;9.122;2023-01-10T06:22:28;13.40;55.00
67598;DHT22;62026;39.230;9.122;2023-01-10T06:24:54;13.40;54.80
67598;DHT22;62026;39.230;9.122;2023-01-10T06:27:20;13.40;55.00
67598;DHT22;62026;39.230;9.122;2023-01-10T06:29:46;13.40;54.60
67598;DHT22;62026;39.230;9.122;2023-01-10T06:32:12;13.40;54.00
67598;DHT22;62026;39.230;9.122;2023-01-10T06:34:38;13.30;53.60
67598;DHT22;62026;39.230;9.122;2023-01-10T06:37:04;13.30;53.50
67598;DHT22;62026;39.230;9.122;2023-01-10T06:39:30;13.30;53.40
67598;DHT22;62026;39.230;9.122;2023-01-10T06:41:56;13.30;53.60
67598;DHT22;62026;39.230;9.122;2023-01-10T06:44:22;13.30;53.50
67598;DHT22;62026;39.230;9.122;2023-01-10T06:46:47;13.30;53.40
67598;DHT22;62026;39.230;9.122;2023-01-10T06:49:13;13.30;53.50
67598;DHT22;62026;39.230;9.122;2023-01-10T06:51:39;13.30;53.30
67598;DHT22;62026;39.230;9.122;2023-01-10T06:54:05;13.30;53.20
67598;DHT22;62026;39.230;9.122;2023-01-10T06:56:31;13.30;53.30
67598;DHT22;62026;39.230;9.122;2023-01-10T06:58:57;13.30;53.60
67598;DHT22;62026;39.230;9.122;2023-01-10T07:01:23;13.30;53.90
67598;DHT22;62026;39.230;9.122;2023-01-10T07:03:49;13.40;54.00
67598;DHT22;62026;39.230;9.122;2023-01-10T07:06:15;13.40;54.00
67598;DHT22;62026;39.230;9.122;2023-01-10T07:08:43;13.40;53.90
67598;DHT22;62026;39.230;9.122;2023-01-10T07:11:13;13.40;54.10
67598;DHT22;62026;39.230;9.122;2023-01-10T07:13:40;13.50;54.10
67598;DHT22;62026;39.230;9.122;2023-01-10T07:16:08;13.50;54.20
67598;DHT22;62026;39.230;9.122;2023-01-10T07:18:37;13.50;54.50
67598;DHT22;62026;39.230;9.122;2023-01-10T07:21:05;13.60;54.30
67598;DHT22;62026;39.230;9.122;2023-01-10T07:23:31;13.60;53.30
67598;DHT22;62026;39.230;9.122;2023-01-10T07:26:00;13.70;53.00
67598;DHT22;62026;39.230;9.122;2023-01-10T07:28:28;13.80;53.50
67598;DHT22;62026;39.230;9.122;2023-01-10T07:30:57;13.80;53.00
67598;DHT22;62026;39.230;9.122;2023-01-10T07:33:24;13.90;52.80
67598;DHT22;62026;39.230;9.122;2023-01-10T07:35:50;13.90;52.50
67598;DHT22;62026;39.230;9.122;2023-01-10T07:38:16;14.00;52.60
67598;DHT22;62026;39.230;9.122;2023-01-10T07:40:42;14.10;52.30
67598;DHT22;62026;39.230;9.122;2023-01-10T07:43:09;14.10;52.00
67598;DHT22;62026;39.230;9.122;2023-01-10T07:45:35;14.20;52.00
67598;DHT22;62026;39.230;9.122;2023-01-10T07:48:02;14.20;51.90
67598;DHT22;62026;39.230;9.122;2023-01-10T07:50:32;14.20;51.70
67598;DHT22;62026;39.230;9.122;2023-01-10T07:53:00;14.30;51.40
67598;DHT22;62026;39.230;9.122;2023-01-10T07:55:28;14.40;50.90
67598;DHT22;62026;39.230;9.122;2023-01-10T07:57:55;14.40;50.80
67598;DHT22;62026;39.230;9.122;2023-01-10T08:00:21;14.40;50.70
67598;DHT22;62026;39.230;9.122;2023-01-10T08:02:52;14.50;51.00
67598;DHT22;62026;39.230;9.122;2023-01-10T08:05:19;14.50;50.90
67598;DHT22;62026;39.230;9.122;2023-01-10T08:07:46;14.60;51.30
67598;DHT22;62026;39.230;9.122;2023-01-10T08:10:12;14.70;51.00
67598;DHT22;62026;39.230;9.122;2023-01-10T08:12:38;14.80;51.10
67598;DHT22;62026;39.230;9.122;2023-01-10T08:15:04;14.90;50.90
67598;DHT22;62026;39.230;9.122;2023-01-10T08:17:34;14.90;50.80
67598;DHT22;62026;39.230;9.122;2023-01-10T08:20:00;14.90;50.80
67598;DHT22;62026;39.230;9.122;2023-01-10T08:22:27;14.90;50.50
67598;DHT22;62026;39.230;9.122;2023-01-10T08:24:53;15.00;50.80
67598;DHT22;62026;39.230;9.122;2023-01-10T08:27:19;15.00;50.70
67598;DHT22;62026;39.230;9.122;2023-01-10T08:29:45;15.00;50.60
67598;DHT22;62026;39.230;9.122;2023-01-10T08:32:11;15.00;50.90
67598;DHT22;62026;39.230;9.122;2023-01-10T08:34:37;15.10;50.70
67598;DHT22;62026;39.230;9.122;2023-01-10T08:37:03;15.20;50.70
67598;DHT22;62026;39.230;9.122;2023-01-10T08:39:29;15.20;51.00
67598;DHT22;62026;39.230;9.122;2023-01-10T08:41:56;15.20;51.00
67598;DHT22;62026;39.230;9.122;2023-01-10T08:44:22;15.10;51.30
67598;DHT22;62026;39.230;9.122;2023-01-10T08:46:48;15.20;51.30
67598;DHT22;62026;39.230;9.122;2023-01-10T08:49:14;15.20;51.50
67598;DHT22;62026;39.230;9.122;2023-01-10T08:51:40;15.30;51.60
67598;DHT22;62026;39.230;9.122;2023-01-10T08:54:06;15.40;51.70
67598;DHT22;62026;39.230;9.122;2023-01-10T08:56:32;15.40;51.60
67598;DHT22;62026;39.230;9.122;2023-01-10T08:59:00;15.40;51.50
67598;DHT22;62026;39.230;9.122;2023-01-10T09:01:26;15.40;51.80
67598;DHT22;62026;39.230;9.122;2023-01-10T09:03:52;15.40;51.70
67598;DHT22;62026;39.230;9.122;2023-01-10T09:06:18;15.50;51.60
67598;DHT22;62026;39.230;9.122;2023-01-10T09:08:44;15.50;51.60
67598;DHT22;62026;39.230;9.122;2023-01-10T09:11:10;15.60;51.60
67598;DHT22;62026;39.230;9.122;2023-01-10T09:13:36;15.70;51.70
67598;DHT22;62026;39.230;9.122;2023-01-10T09:16:02;15.80;51.40
67598;DHT22;62026;39.230;9.122;2023-01-10T09:18:28;15.80;51.30
67598;DHT22;62026;39.230;9.122;2023-01-10T09:20:54;16.00;51.30
67598;DHT22;62026;39.230;9.122;2023-01-10T09:23:22;16.00;51.20
67598;DHT22;62026;39.230;9.122;2023-01-10T09:25:53;16.20;51.00
67598;DHT22;62026;39.230;9.122;2023-01-10T09:28:21;16.30;50.90
67598;DHT22;62026;39.230;9.122;2023-01-10T09:30:49;16.20;50.70
67598;DHT22;62026;39.230;9.122;2023-01-10T09:33:15;16.20;50.90
67598;DHT22;62026;39.230;9.122;2023-01-10T09:35:41;16.30;50.10
67598;DHT22;62026;39.230;9.122;2023-01-10T09:38:13;16.30;50.30
67598;DHT22;62026;39.230;9.122;2023-01-10T09:44:04;16.30;50.40
67598;DHT22;62026;39.230;9.122;2023-01-10T09:49:47;16.20;49.50
67598;DHT22;62026;39.230;9.122;2023-01-10T09:52:31;16.30;49.20
67598;DHT22;62026;39.230;9.122;2023-01-10T09:55:25;16.20;48.80
67598;DHT22;62026;39.230;9.122;2023-01-10T09:57:52;16.40;48.80
67598;DHT22;62026;39.230;9.122;2023-01-10T10:00:23;16.30;48.40
67598;DHT22;62026;39.230;9.122;2023-01-10T10:02:58;16.30;48.80
67598;DHT22;62026;39.230;9.122;2023-01-10T10:05:26;16.40;49.30
67598;DHT22;62026;39.230;9.122;2023-01-10T10:08:00;16.60;48.80
67598;DHT22;62026;39.230;9.122;2023-01-10T10:10:47;16.40;49.00
67598;DHT22;62026;39.230;9.122;2023-01-10T10:32:02;16.10;50.10
67598;DHT22;62026;39.230;9.122;2023-01-10T10:34:52;15.90;49.90
67598;DHT22;62026;39.230;9.122;2023-01-10T10:37:51;15.80;50.60
67598;DHT22;62026;39.230;9.122;2023-01-10T10:40:31;15.80;49.90
67598;DHT22;62026;39.230;9.122;2023-01-10T10:43:20;15.70;49.40
67598;DHT22;62026;39.230;9.122;2023-01-10T10:46:03;15.80;50.00
67598;DHT22;62026;39.230;9.122;2023-01-10T10:48:48;15.80;50.10
67598;DHT22;62026;39.230;9.122;2023-01-10T10:54:01;15.70;50.10
67598;DHT22;62026;39.230;9.122;2023-01-10T10:56:29;15.80;49.30
67598;DHT22;62026;39.230;9.122;2023-01-10T10:58:58;15.80;49.10
67598;DHT22;62026;39.230;9.122;2023-01-10T11:01:25;15.70;48.80
67598;DHT22;62026;39.230;9.122;2023-01-10T11:03:58;15.70;49.10
67598;DHT22;62026;39.230;9.122;2023-01-10T11:06:35;15.70;49.00
67598;DHT22;62026;39.230;9.122;2023-01-10T11:09:04;15.60;48.40
67598;DHT22;62026;39.230;9.122;2023-01-10T11:11:42;15.60;48.60
67598;DHT22;62026;39.230;9.122;2023-01-10T11:14:11;15.60;48.70
67598;DHT22;62026;39.230;9.122;2023-01-10T11:16:40;15.50;48.70
67598;DHT22;62026;39.230;9.122;2023-01-10T11:21:40;15.50;47.80
67598;DHT22;62026;39.230;9.122;2023-01-10T11:24:41;15.50;47.70
67598;DHT22;62026;39.230;9.122;2023-01-10T11:27:18;15.50;47.70
67598;DHT22;62026;39.230;9.122;2023-01-10T11:29:52;15.50;46.50
67598;DHT22;62026;39.230;9.122;2023-01-10T11:32:37;15.50;46.60
67598;DHT22;62026;39.230;9.122;2023-01-10T11:38:24;15.40;46.30
67598;DHT22;62026;39.230;9.122;2023-01-10T11:43:32;15.30;46.60
67598;DHT22;62026;39.230;9.122;2023-01-10T11:46:03;15.30;47.10
67598;DHT22;62026;39.230;9.122;2023-01-10T11:48:47;15.40;47.70
67598;DHT22;62026;39.230;9.122;2023-01-10T11:51:37;15.40;47.60
67598;DHT22;62026;39.230;9.122;2023-01-10T11:54:25;15.40;47.60
67598;DHT22;62026;39.230;9.122;2023-01-10T11:56:56;15.30;48.10
67598;DHT22;62026;39.230;9.122;2023-01-10T11:59:25;15.30;47.50
67598;DHT22;62026;39.230;9.122;2023-01-10T12:01:54;15.30;48.30
67598;DHT22;62026;39.230;9.122;2023-01-10T12:04:26;15.30;48.00
67598;DHT22;62026;39.230;9.122;2023-01-10T12:06:59;15.30;48.30
67598;DHT22;62026;39.230;9.122;2023-01-10T12:09:43;15.30;48.60
67598;DHT22;62026;39.230;9.122;2023-01-10T12:12:21;15.30;47.90
67598;DHT22;62026;39.230;9.122;2023-01-10T12:14:51;15.30;48.00
67598;DHT22;62026;39.230;9.122;2023-01-10T12:17:29;15.30;47.50
67598;DHT22;62026;39.230;9.122;2023-01-10T12:19:59;15.30;47.10
67598;DHT22;62026;39.230;9.122;2023-01-10T12:22:40;15.30;47.30
67598;DHT22;62026;39.230;9.122;2023-01-10T12:25:21;15.30;46.60
67598;DHT22;62026;39.230;9.122;2023-01-10T12:27:56;15.30;46.70
67598;DHT22;62026;39.230;9.122;2023-01-10T12:30:32;15.20;47.20
67598;DHT22;62026;39.230;9.122;2023-01-10T12:33:03;15.20;47.40
67598;DHT22;62026;39.230;9.122;2023-01-10T12:35:38;15.20;47.00
67598;DHT22;62026;39.230;9.122;2023-01-10T12:38:17;15.20;47.10
67598;DHT22;62026;39.230;9.122;2023-01-10T12:41:08;15.20;46.80
67598;DHT22;62026;39.230;9.122;2023-01-10T12:43:57;15.20;47.70
67598;DHT22;62026;39.230;9.122;2023-01-10T12:46:44;15.20;47.70
67598;DHT22;62026;39.230;9.122;2023-01-10T12:49:21;15.20;47.90
67598;DHT22;62026;39.230;9.122;2023-01-10T12:51:52;15.20;47.90
67598;DHT22;62026;39.230;9.122;2023-01-10T12:54:24;15.20;47.60
67598;DHT22;62026;39.230;9.122;2023-01-10T12:56:53;15.20;47.70
67598;DHT22;62026;39.230;9.122;2023-01-10T12:59:26;15.20;47.20
67598;DHT22;62026;39.230;9.122;2023-01-10T13:02:02;15.20;47.30
67598;DHT22;62026;39.230;9.122;2023-01-10T13:04:33;15.10;47.80
67598;DHT22;62026;39.230;9.122;2023-01-10T13:07:03;15.00;47.90
67598;DHT22;62026;39.230;9.122;2023-01-10T13:09:30;15.00;48.30
67598;DHT22;62026;39.230;9.122;2023-01-10T13:18:14;14.90;48.80
67598;DHT22;62026;39.230;9.122;2023-01-10T13:20:44;14.90;48.50
67598;DHT22;62026;39.230;9.122;2023-01-10T13:23:32;15.00;48.40
67598;DHT22;62026;39.230;9.122;2023-01-10T13:26:06;15.00;47.50
67598;DHT22;62026;39.230;9.122;2023-01-10T13:28:36;15.00;47.70
67598;DHT22;62026;39.230;9.122;2023-01-10T13:31:20;15.00;48.10
67598;DHT22;62026;39.230;9.122;2023-01-10T13:34:02;15.10;48.10
67598;DHT22;62026;39.230;9.122;2023-01-10T13:39:32;15.10;47.80
67598;DHT22;62026;39.230;9.122;2023-01-10T13:52:51;15.10;48.80
67598;DHT22;62026;39.230;9.122;2023-01-10T13:55:21;15.10;48.90
67598;DHT22;62026;39.230;9.122;2023-01-10T14:03:48;15.10;48.10
67598;DHT22;62026;39.230;9.122;2023-01-10T14:09:05;15.00;48.50
67598;DHT22;62026;39.230;9.122;2023-01-10T14:11:52;15.00;49.10
67598;DHT22;62026;39.230;9.122;2023-01-10T14:14:30;15.00;49.20
67598;DHT22;62026;39.230;9.122;2023-01-10T14:17:34;15.00;49.10
67598;DHT22;62026;39.230;9.122;2023-01-10T14:20:13;15.00;48.70
67598;DHT22;62026;39.230;9.122;2023-01-10T14:23:15;15.00;49.10
67598;DHT22;62026;39.230;9.122;2023-01-10T14:25:46;15.00;49.40
67598;DHT22;62026;39.230;9.122;2023-01-10T14:28:24;15.00;49.60
67598;DHT22;62026;39.230;9.122;2023-01-10T14:31:01;15.00;49.60
67598;DHT22;62026;39.230;9.122;2023-01-10T14:33:32;15.00;49.60
67598;DHT22;62026;39.230;9.122;2023-01-10T14:36:19;15.00;49.60
67598;DHT22;62026;39.230;9.122;2023-01-10T14:38:54;15.00;49.80
67598;DHT22;62026;39.230;9.122;2023-01-10T14:41:38;15.00;49.40
67598;DHT22;62026;39.230;9.122;2023-01-10T14:46:46;15.00;49.00
67598;DHT22;62026;39.230;9.122;2023-01-10T14:49:26;14.90;49.00
67598;DHT22;62026;39.230;9.122;2023-01-10T14:52:10;14.90;49.30
67598;DHT22;62026;39.230;9.122;2023-01-10T14:54:38;14.90;48.90
67598;DHT22;62026;39.230;9.122;2023-01-10T14:57:18;14.90;49.20
67598;DHT22;62026;39.230;9.122;2023-01-10T14:59:46;14.90;49.20
67598;DHT22;62026;39.230;9.122;2023-01-10T15:02:22;14.90;49.60
67598;DHT22;62026;39.230;9.122;2023-01-10T15:05:14;14.90;49.60
67598;DHT22;62026;39.230;9.122;2023-01-10T15:07:43;14.90;49.80
67598;DHT22;62026;39.230;9.122;2023-01-10T15:10:29;14.80;49.60
67598;DHT22;62026;39.230;9.122;2023-01-10T15:13:00;14.80;49.70
67598;DHT22;62026;39.230;9.122;2023-01-10T15:15:36;14.90;49.90
67598;DHT22;62026;39.230;9.122;2023-01-10T15:18:30;14.80;49.70
67598;DHT22;62026;39.230;9.122;2023-01-10T15:20:58;14.80;49.50
67598;DHT22;62026;39.230;9.122;2023-01-10T15:23:35;14.80;49.30
67598;DHT22;62026;39.230;9.122;2023-01-10T15:26:06;14.80;49.70
67598;DHT22;62026;39.230;9.122;2023-01-10T15:28:42;14.80;49.70
67598;DHT22;62026;39.230;9.122;2023-01-10T15:31:14;14.80;49.90
67598;DHT22;62026;39.230;9.122;2023-01-10T15:33:49;14.70;50.10
67598;DHT22;62026;39.230;9.122;2023-01-10T15:36:23;14.70;50.30
67598;DHT22;62026;39.230;9.122;2023-01-10T15:38:52;14.70;50.50
67598;DHT22;62026;39.230;9.122;2023-01-10T15:41:21;14.70;50.60
67598;DHT22;62026;39.230;9.122;2023-01-10T15:43:48;14.70;50.40
67598;DHT22;62026;39.230;9.122;2023-01-10T15:46:23;14.70;50.50
67598;DHT22;62026;39.230;9.122;2023-01-10T15:48:56;14.60;50.40
67598;DHT22;62026;39.230;9.122;2023-01-10T15:51:32;14.60;50.40
67598;DHT22;62026;39.230;9.122;2023-01-10T15:54:06;14.70;50.40
67598;DHT22;62026;39.230;9.122;2023-01-10T15:56:59;14.60;50.60
67598;DHT22;62026;39.230;9.122;2023-01-10T15:59:31;14.60;50.80
67598;DHT22;62026;39.230;9.122;2023-01-10T16:04:36;14.60;51.30
67598;DHT22;62026;39.230;9.122;2023-01-10T16:07:25;14.60;51.40
67598;DHT22;62026;39.230;9.122;2023-01-10T16:09:56;14.50;51.30
67598;DHT22;62026;39.230;9.122;2023-01-10T16:15:26;14.50;51.70
67598;DHT22;62026;39.230;9.122;2023-01-10T16:17:53;14.50;51.90
67598;DHT22;62026;39.230;9.122;2023-01-10T16:20:25;14.50;52.00
67598;DHT22;62026;39.230;9.122;2023-01-10T16:23:15;14.60;52.00
67598;DHT22;62026;39.230;9.122;2023-01-10T16:25:52;14.50;52.10
67598;DHT22;62026;39.230;9.122;2023-01-10T16:28:21;14.50;52.30
67598;DHT22;62026;39.230;9.122;2023-01-10T16:30:48;14.50;52.40
67598;DHT22;62026;39.230;9.122;2023-01-10T16:33:24;14.50;52.60
67598;DHT22;62026;39.230;9.122;2023-01-10T16:35:56;14.50;52.80
67598;DHT22;62026;39.230;9.122;2023-01-10T16:38:25;14.40;53.00
67598;DHT22;62026;39.230;9.122;2023-01-10T16:41:02;14.40;53.00
67598;DHT22;62026;39.230;9.122;2023-01-10T16:43:52;14.40;53.20
67598;DHT22;62026;39.230;9.122;2023-01-10T16:46:18;14.40;53.40
67598;DHT22;62026;39.230;9.122;2023-01-10T16:48:44;14.40;53.20
67598;DHT22;62026;39.230;9.122;2023-01-10T16:53:43;14.40;53.10
67598;DHT22;62026;39.230;9.122;2023-01-10T16:56:21;14.40;52.90
67598;DHT22;62026;39.230;9.122;2023-01-10T16:58:53;14.40;52.80
67598;DHT22;62026;39.230;9.122;2023-01-10T17:01:25;14.30;53.10
67598;DHT22;62026;39.230;9.122;2023-01-10T17:03:57;14.30;53.00
67598;DHT22;62026;39.230;9.122;2023-01-10T17:06:23;14.30;53.00
67598;DHT22;62026;39.230;9.122;2023-01-10T17:08:49;14.30;53.20
67598;DHT22;62026;39.230;9.122;2023-01-10T17:11:19;14.30;53.10
67598;DHT22;62026;39.230;9.122;2023-01-10T17:13:50;14.30;53.10
67598;DHT22;62026;39.230;9.122;2023-01-10T17:16:16;14.30;53.20
67598;DHT22;62026;39.230;9.122;2023-01-10T17:18:42;14.20;53.20
67598;DHT22;62026;39.230;9.122;2023-01-10T17:21:20;14.20;53.40
67598;DHT22;62026;39.230;9.122;2023-01-10T17:23:48;14.20;53.40
67598;DHT22;62026;39.230;9.122;2023-01-10T17:26:16;14.20;53.40
67598;DHT22;62026;39.230;9.122;2023-01-10T17:28:44;14.20;53.60
67598;DHT22;62026;39.230;9.122;2023-01-10T17:31:11;14.10;53.90
67598;DHT22;62026;39.230;9.122;2023-01-10T17:33:37;14.10;53.90
67598;DHT22;62026;39.230;9.122;2023-01-10T17:36:04;14.10;53.90
67598;DHT22;62026;39.230;9.122;2023-01-10T17:38:30;14.00;54.10
67598;DHT22;62026;39.230;9.122;2023-01-10T17:40:59;14.00;53.90
67598;DHT22;62026;39.230;9.122;2023-01-10T17:43:29;14.00;54.00
67598;DHT22;62026;39.230;9.122;2023-01-10T17:45:56;14.00;54.20
67598;DHT22;62026;39.230;9.122;2023-01-10T17:48:25;14.00;54.30
67598;DHT22;62026;39.230;9.122;2023-01-10T17:50:57;14.00;54.00
67598;DHT22;62026;39.230;9.122;2023-01-10T17:53:24;14.00;53.80
67598;DHT22;62026;39.230;9.122;2023-01-10T17:55:51;14.00;53.80
67598;DHT22;62026;39.230;9.122;2023-01-10T17:58:18;14.00;53.70
67598;DHT22;62026;39.230;9.122;2023-01-10T18:00:45;14.00;53.80
67598;DHT22;62026;39.230;9.122;2023-01-10T18:03:11;14.00;53.90